Flight Track Log - Related Links

Times and Time Zones

All times are in EDT time to prevent confusion due to time zone crossing. See the ASH3770 flight status page for this flight to view local times or setup timezone preferences in your user account.

Time Position Orientation Groundspeed Altitude Reporting Facility
EDT Latitude Longitude Course Direction KTS MPH feet Rate Location/Type
03:56PM 38.9667 -77.5667 125° Southeast 241 277 2,800  Level Potomac TRACON
03:57PM 39.0333 -77.5667 360° North 260 299 5,300 2,579 Climbing Potomac TRACON
03:58PM 38.7602 -77.1122 120° Southeast  Level FlightAware Approximate
03:58PM 39.1000 -77.5500 11° North 253 291 8,000  Level Potomac TRACON
03:59PM 38.7195 -77.0229 120° Southeast  Level FlightAware Approximate
03:59PM 39.1500 -77.4833 46° Northeast 276 318 10,000  Level Potomac TRACON
04:00PM 38.6737 -76.9378 125° Southeast  Level FlightAware Approximate
04:00PM 39.1500 -77.3667 90° East 334 384 10,100  Level Potomac TRACON
04:01PM 38.6275 -76.8531 125° Southeast  Level FlightAware Approximate
04:01PM 39.1333 -77.2500 100° East 361 415 10,200  Level Potomac TRACON
04:02PM 39.0833 -77.1333 119° Southeast 359 413 11,800 1,550 Climbing Potomac TRACON
04:03PM 39.0333 -77.0333 123° Southeast 373 429 13,300 1,100 Climbing Potomac TRACON
04:04PM 38.9500 -76.9500 142° Southeast 391 450 14,000 365 Climbing Potomac TRACON
04:05PM 38.8667 -76.9000 155° Southeast 430 495 14,000  Level Potomac TRACON
04:06PM 38.7667 -76.8333 153° Southeast 413 475 14,000  Level Potomac TRACON
04:07PM 38.6344 -76.7692 159° South 430 495 14,000 -44 Level Washington Center
04:08PM 38.5286 -76.7222 161° South 424 488 13,900  Descending Washington Center
04:09PM 38.4183 -76.7072 174° South 411 473 14,000 50 Climbing Washington Center
04:10PM 38.3058 -76.6950 175° South 411 473 14,000 -50 Level Washington Center
04:11PM 38.1994 -76.6803 174° South 406 467 13,900 -356 Descending Washington Center
04:12PM 38.1078 -76.6683 174° South 374 430 13,300 -1,050 Descending Washington Center
04:13PM 38.0267 -76.6700 181° South 311 358 11,800 -1,488 Descending Washington Center
04:14PM 37.9328 -76.6764 183° South 294 338 10,300 -1,019 Descending Washington Center
04:15PM 37.8742 -76.6861 187° South 306 352 10,000 -168 Descending Washington Center
04:16PM 37.7975 -76.6142 143° Southeast 328 377 10,000  Level Washington Center
04:17PM 37.7481 -76.5478 133° Southeast 321 369 10,000  Level Washington Center
04:18PM 37.6781 -76.4472 131° Southeast 322 371 10,000 -512 Level Washington Center
04:19PM 37.6181 -76.3678 134° Southeast 309 356 8,900 -1,729 Descending Washington Center
04:20PM 37.5683 -76.2992 132° Southeast 272 313 6,600 -2,389 Descending Washington Center
04:21PM 37.5186 -76.2386 136° Southeast 269 310 4,400 -1,345 Descending Washington Center
04:22PM 37.4583 -76.1806 143° Southeast 266 306 4,000 -200 Descending Washington Center
04:23PM 37.3856 -76.1589 167° South 274 315 4,000  Level Washington Center
04:24PM 37.3125 -76.1403 169° South 272 313 4,000 -48 Level Washington Center
04:25PM 37.2397 -76.1189 167° South 264 304 3,900 -149 Descending Washington Center
04:26PM 37.1772 -76.0819 155° Southeast 213 245 3,700 -555 Descending Washington Center
04:27PM 37.1211 -76.0608 163° South 200 230 2,800 -885 Descending Washington Center

Login

Don't have an account? Register now (free) for customized features, flight alerts, and more!